Terminal Aerodrome Forecast
Issued by NWS Goodland, KS

Home | Current Version | Previous Version | Text Only | Print | Product List | Glossary On
Versions: 1 2 3 4 5 6 7 8 9 10 11 12 13 14 15 16
927
FTUS43 KGLD 151500 AAA
TAFGLD
TAF AMD
KGLD 151500Z 1515/1612 01015G25KT P6SM SCT030 SCT070 OVC090
     FM151700 36017G28KT P6SM SCT100
     FM152200 35013KT P6SM SKC
     FM160400 31006KT P6SM SKC=

USA.gov is the U.S. government's official web portal to all federal, state and local government web resources and services.